sensor_id;sensor_type;location;lat;lon;timestamp;P1;durP1;ratioP1;P2;durP2;ratioP2
6828;SDS011;17930;48.592;8.868;2023-04-03T00:00:06;4.90;;;2.95;;
6828;SDS011;17930;48.592;8.868;2023-04-03T00:02:34;3.63;;;2.40;;
6828;SDS011;17930;48.592;8.868;2023-04-03T00:05:01;5.80;;;3.15;;
6828;SDS011;17930;48.592;8.868;2023-04-03T00:07:28;6.50;;;2.63;;
6828;SDS011;17930;48.592;8.868;2023-04-03T00:09:54;7.18;;;2.58;;
6828;SDS011;17930;48.592;8.868;2023-04-03T00:12:22;3.80;;;2.08;;
6828;SDS011;17930;48.592;8.868;2023-04-03T00:14:49;4.13;;;2.40;;
6828;SDS011;17930;48.592;8.868;2023-04-03T00:17:15;3.03;;;2.30;;
6828;SDS011;17930;48.592;8.868;2023-04-03T00:19:42;3.67;;;2.80;;
6828;SDS011;17930;48.592;8.868;2023-04-03T00:22:09;4.07;;;2.25;;
6828;SDS011;17930;48.592;8.868;2023-04-03T00:24:35;4.18;;;2.83;;
6828;SDS011;17930;48.592;8.868;2023-04-03T00:27:02;6.50;;;2.47;;
6828;SDS011;17930;48.592;8.868;2023-04-03T00:29:34;4.32;;;2.85;;
6828;SDS011;17930;48.592;8.868;2023-04-03T00:32:00;3.40;;;2.42;;
6828;SDS011;17930;48.592;8.868;2023-04-03T00:34:27;3.20;;;2.33;;
6828;SDS011;17930;48.592;8.868;2023-04-03T00:36:54;3.70;;;2.63;;
6828;SDS011;17930;48.592;8.868;2023-04-03T00:39:21;6.90;;;2.50;;
6828;SDS011;17930;48.592;8.868;2023-04-03T00:41:47;6.30;;;2.50;;
6828;SDS011;17930;48.592;8.868;2023-04-03T00:44:21;3.45;;;2.45;;
6828;SDS011;17930;48.592;8.868;2023-04-03T00:47:10;3.30;;;2.13;;
6828;SDS011;17930;48.592;8.868;2023-04-03T00:49:39;4.75;;;2.42;;
6828;SDS011;17930;48.592;8.868;2023-04-03T00:52:07;6.22;;;2.80;;
6828;SDS011;17930;48.592;8.868;2023-04-03T00:54:37;6.10;;;2.90;;
6828;SDS011;17930;48.592;8.868;2023-04-03T00:57:07;3.80;;;2.40;;
6828;SDS011;17930;48.592;8.868;2023-04-03T00:59:36;4.07;;;2.58;;
6828;SDS011;17930;48.592;8.868;2023-04-03T01:02:10;2.95;;;2.10;;
6828;SDS011;17930;48.592;8.868;2023-04-03T01:04:38;5.38;;;2.85;;
6828;SDS011;17930;48.592;8.868;2023-04-03T01:07:07;4.63;;;2.47;;
6828;SDS011;17930;48.592;8.868;2023-04-03T01:09:35;3.70;;;2.45;;
6828;SDS011;17930;48.592;8.868;2023-04-03T01:12:13;3.58;;;2.33;;
6828;SDS011;17930;48.592;8.868;2023-04-03T01:14:41;3.40;;;2.55;;
6828;SDS011;17930;48.592;8.868;2023-04-03T01:23:06;3.88;;;2.15;;
6828;SDS011;17930;48.592;8.868;2023-04-03T01:25:45;3.38;;;2.17;;
6828;SDS011;17930;48.592;8.868;2023-04-03T01:28:14;5.68;;;2.30;;
6828;SDS011;17930;48.592;8.868;2023-04-03T01:30:45;3.45;;;2.50;;
6828;SDS011;17930;48.592;8.868;2023-04-03T01:33:18;4.30;;;2.38;;
6828;SDS011;17930;48.592;8.868;2023-04-03T01:35:45;2.65;;;2.20;;
6828;SDS011;17930;48.592;8.868;2023-04-03T01:38:12;3.22;;;2.30;;
6828;SDS011;17930;48.592;8.868;2023-04-03T01:40:38;4.07;;;2.38;;
6828;SDS011;17930;48.592;8.868;2023-04-03T01:43:05;3.90;;;2.67;;
6828;SDS011;17930;48.592;8.868;2023-04-03T01:45:31;5.93;;;2.50;;
6828;SDS011;17930;48.592;8.868;2023-04-03T01:47:58;3.03;;;2.50;;
6828;SDS011;17930;48.592;8.868;2023-04-03T01:50:26;4.30;;;2.47;;
6828;SDS011;17930;48.592;8.868;2023-04-03T01:52:52;3.88;;;2.45;;
6828;SDS011;17930;48.592;8.868;2023-04-03T01:55:19;4.07;;;2.35;;
6828;SDS011;17930;48.592;8.868;2023-04-03T01:57:46;4.43;;;2.95;;
6828;SDS011;17930;48.592;8.868;2023-04-03T02:00:13;3.03;;;2.53;;
6828;SDS011;17930;48.592;8.868;2023-04-03T02:02:40;3.67;;;2.30;;
6828;SDS011;17930;48.592;8.868;2023-04-03T02:05:07;3.92;;;2.25;;
6828;SDS011;17930;48.592;8.868;2023-04-03T02:07:36;5.60;;;2.72;;
6828;SDS011;17930;48.592;8.868;2023-04-03T02:10:03;3.30;;;2.50;;
6828;SDS011;17930;48.592;8.868;2023-04-03T02:12:29;3.42;;;2.25;;
6828;SDS011;17930;48.592;8.868;2023-04-03T02:14:56;3.38;;;2.33;;
6828;SDS011;17930;48.592;8.868;2023-04-03T02:17:23;2.50;;;2.10;;
6828;SDS011;17930;48.592;8.868;2023-04-03T02:19:49;3.15;;;2.22;;
6828;SDS011;17930;48.592;8.868;2023-04-03T02:22:16;3.35;;;2.00;;
6828;SDS011;17930;48.592;8.868;2023-04-03T02:24:44;3.63;;;2.47;;
6828;SDS011;17930;48.592;8.868;2023-04-03T02:27:11;3.72;;;2.47;;
6828;SDS011;17930;48.592;8.868;2023-04-03T02:29:38;3.25;;;2.22;;
6828;SDS011;17930;48.592;8.868;2023-04-03T02:32:04;4.95;;;2.72;;
6828;SDS011;17930;48.592;8.868;2023-04-03T02:34:31;2.80;;;2.33;;
6828;SDS011;17930;48.592;8.868;2023-04-03T02:36:58;2.95;;;2.03;;
6828;SDS011;17930;48.592;8.868;2023-04-03T02:39:25;4.10;;;2.25;;
6828;SDS011;17930;48.592;8.868;2023-04-03T02:41:53;3.88;;;2.40;;
6828;SDS011;17930;48.592;8.868;2023-04-03T02:44:20;3.10;;;2.25;;
6828;SDS011;17930;48.592;8.868;2023-04-03T02:46:46;5.20;;;2.40;;
6828;SDS011;17930;48.592;8.868;2023-04-03T02:49:13;3.55;;;2.47;;
6828;SDS011;17930;48.592;8.868;2023-04-03T02:51:40;2.55;;;1.95;;
6828;SDS011;17930;48.592;8.868;2023-04-03T02:54:09;3.25;;;2.38;;
6828;SDS011;17930;48.592;8.868;2023-04-03T02:56:36;3.10;;;2.08;;
6828;SDS011;17930;48.592;8.868;2023-04-03T02:59:05;3.28;;;2.50;;
6828;SDS011;17930;48.592;8.868;2023-04-03T03:01:32;4.05;;;2.25;;
6828;SDS011;17930;48.592;8.868;2023-04-03T03:03:59;2.67;;;2.42;;
6828;SDS011;17930;48.592;8.868;2023-04-03T03:06:26;3.70;;;2.13;;
6828;SDS011;17930;48.592;8.868;2023-04-03T03:08:53;3.97;;;2.28;;
6828;SDS011;17930;48.592;8.868;2023-04-03T03:11:20;4.28;;;2.28;;
6828;SDS011;17930;48.592;8.868;2023-04-03T03:13:47;5.35;;;2.40;;
6828;SDS011;17930;48.592;8.868;2023-04-03T03:16:15;5.97;;;2.28;;
6828;SDS011;17930;48.592;8.868;2023-04-03T03:18:41;3.63;;;2.40;;
6828;SDS011;17930;48.592;8.868;2023-04-03T03:21:08;3.40;;;2.30;;
6828;SDS011;17930;48.592;8.868;2023-04-03T03:23:35;4.00;;;2.17;;
6828;SDS011;17930;48.592;8.868;2023-04-03T03:26:06;2.75;;;2.20;;
6828;SDS011;17930;48.592;8.868;2023-04-03T03:28:33;6.00;;;2.30;;
6828;SDS011;17930;48.592;8.868;2023-04-03T03:31:01;3.65;;;2.70;;
6828;SDS011;17930;48.592;8.868;2023-04-03T03:33:29;3.60;;;2.42;;
6828;SDS011;17930;48.592;8.868;2023-04-03T03:35:56;2.63;;;2.03;;
6828;SDS011;17930;48.592;8.868;2023-04-03T03:38:28;3.33;;;2.35;;
6828;SDS011;17930;48.592;8.868;2023-04-03T03:40:54;3.35;;;2.33;;
6828;SDS011;17930;48.592;8.868;2023-04-03T03:43:21;2.97;;;2.15;;
6828;SDS011;17930;48.592;8.868;2023-04-03T03:45:49;3.60;;;2.35;;
6828;SDS011;17930;48.592;8.868;2023-04-03T03:48:17;3.67;;;2.10;;
6828;SDS011;17930;48.592;8.868;2023-04-03T03:50:46;4.07;;;2.25;;
6828;SDS011;17930;48.592;8.868;2023-04-03T03:53:13;3.20;;;2.10;;
6828;SDS011;17930;48.592;8.868;2023-04-03T03:55:41;4.55;;;2.20;;
6828;SDS011;17930;48.592;8.868;2023-04-03T03:58:08;3.80;;;2.17;;
6828;SDS011;17930;48.592;8.868;2023-04-03T04:00:35;2.38;;;1.83;;
6828;SDS011;17930;48.592;8.868;2023-04-03T04:03:01;4.25;;;2.10;;
6828;SDS011;17930;48.592;8.868;2023-04-03T04:05:28;3.88;;;2.38;;
6828;SDS011;17930;48.592;8.868;2023-04-03T04:07:57;2.30;;;1.73;;
6828;SDS011;17930;48.592;8.868;2023-04-03T04:10:23;3.55;;;2.10;;
6828;SDS011;17930;48.592;8.868;2023-04-03T04:12:50;2.90;;;2.00;;
6828;SDS011;17930;48.592;8.868;2023-04-03T04:15:20;6.03;;;2.40;;
6828;SDS011;17930;48.592;8.868;2023-04-03T04:17:48;3.10;;;2.22;;
6828;SDS011;17930;48.592;8.868;2023-04-03T04:20:14;9.07;;;4.88;;
6828;SDS011;17930;48.592;8.868;2023-04-03T04:22:41;3.88;;;2.90;;
6828;SDS011;17930;48.592;8.868;2023-04-03T04:25:10;3.58;;;2.22;;
6828;SDS011;17930;48.592;8.868;2023-04-03T04:27:37;3.30;;;2.17;;
6828;SDS011;17930;48.592;8.868;2023-04-03T04:30:05;3.53;;;2.55;;
6828;SDS011;17930;48.592;8.868;2023-04-03T04:32:33;4.40;;;1.95;;
6828;SDS011;17930;48.592;8.868;2023-04-03T04:35:02;3.88;;;2.40;;
6828;SDS011;17930;48.592;8.868;2023-04-03T04:37:30;2.92;;;2.40;;
6828;SDS011;17930;48.592;8.868;2023-04-03T04:39:56;4.35;;;2.70;;
6828;SDS011;17930;48.592;8.868;2023-04-03T04:42:24;3.42;;;2.28;;
6828;SDS011;17930;48.592;8.868;2023-04-03T04:44:51;5.90;;;2.58;;
6828;SDS011;17930;48.592;8.868;2023-04-03T04:47:18;2.72;;;2.05;;
6828;SDS011;17930;48.592;8.868;2023-04-03T04:49:44;3.15;;;2.13;;
6828;SDS011;17930;48.592;8.868;2023-04-03T04:52:12;3.40;;;1.85;;
6828;SDS011;17930;48.592;8.868;2023-04-03T04:54:39;2.63;;;1.98;;
6828;SDS011;17930;48.592;8.868;2023-04-03T04:57:06;1.95;;;1.75;;
6828;SDS011;17930;48.592;8.868;2023-04-03T04:59:34;3.55;;;2.38;;
6828;SDS011;17930;48.592;8.868;2023-04-03T05:02:00;2.45;;;2.03;;
6828;SDS011;17930;48.592;8.868;2023-04-03T05:04:27;2.45;;;1.90;;
6828;SDS011;17930;48.592;8.868;2023-04-03T05:06:53;3.38;;;2.50;;
6828;SDS011;17930;48.592;8.868;2023-04-03T05:09:20;2.78;;;1.95;;
6828;SDS011;17930;48.592;8.868;2023-04-03T05:11:47;4.50;;;2.08;;
6828;SDS011;17930;48.592;8.868;2023-04-03T05:14:14;4.38;;;2.08;;
6828;SDS011;17930;48.592;8.868;2023-04-03T05:16:42;3.17;;;1.85;;
6828;SDS011;17930;48.592;8.868;2023-04-03T05:19:08;3.65;;;1.88;;
6828;SDS011;17930;48.592;8.868;2023-04-03T05:21:35;4.35;;;2.42;;
6828;SDS011;17930;48.592;8.868;2023-04-03T05:24:02;3.63;;;1.98;;
6828;SDS011;17930;48.592;8.868;2023-04-03T05:26:29;2.88;;;1.77;;
6828;SDS011;17930;48.592;8.868;2023-04-03T05:28:56;8.85;;;2.63;;
6828;SDS011;17930;48.592;8.868;2023-04-03T05:31:23;2.53;;;2.00;;
6828;SDS011;17930;48.592;8.868;2023-04-03T05:33:51;3.97;;;2.22;;
6828;SDS011;17930;48.592;8.868;2023-04-03T05:36:18;6.60;;;2.50;;
6828;SDS011;17930;48.592;8.868;2023-04-03T05:38:45;2.85;;;1.95;;
6828;SDS011;17930;48.592;8.868;2023-04-03T05:41:11;2.50;;;1.83;;
6828;SDS011;17930;48.592;8.868;2023-04-03T05:43:38;4.35;;;2.28;;
6828;SDS011;17930;48.592;8.868;2023-04-03T05:46:08;3.58;;;1.90;;
6828;SDS011;17930;48.592;8.868;2023-04-03T05:48:36;3.17;;;2.25;;
6828;SDS011;17930;48.592;8.868;2023-04-03T05:51:05;2.20;;;1.80;;
6828;SDS011;17930;48.592;8.868;2023-04-03T05:53:34;2.20;;;1.92;;
6828;SDS011;17930;48.592;8.868;2023-04-03T05:56:02;2.03;;;1.65;;
6828;SDS011;17930;48.592;8.868;2023-04-03T05:58:29;3.47;;;1.83;;
6828;SDS011;17930;48.592;8.868;2023-04-03T06:00:56;2.30;;;1.48;;
6828;SDS011;17930;48.592;8.868;2023-04-03T06:03:23;2.25;;;1.70;;
6828;SDS011;17930;48.592;8.868;2023-04-03T06:05:50;2.60;;;1.75;;
6828;SDS011;17930;48.592;8.868;2023-04-03T06:08:18;2.78;;;1.88;;
6828;SDS011;17930;48.592;8.868;2023-04-03T06:10:45;2.15;;;1.77;;
6828;SDS011;17930;48.592;8.868;2023-04-03T06:13:11;2.17;;;1.50;;
6828;SDS011;17930;48.592;8.868;2023-04-03T06:15:38;5.20;;;3.45;;
6828;SDS011;17930;48.592;8.868;2023-04-03T06:18:05;14.95;;;7.47;;
6828;SDS011;17930;48.592;8.868;2023-04-03T06:20:32;4.13;;;2.65;;
6828;SDS011;17930;48.592;8.868;2023-04-03T06:22:59;5.32;;;3.45;;
6828;SDS011;17930;48.592;8.868;2023-04-03T06:25:26;2.78;;;2.00;;
6828;SDS011;17930;48.592;8.868;2023-04-03T06:27:54;2.20;;;1.42;;
6828;SDS011;17930;48.592;8.868;2023-04-03T06:30:21;2.25;;;1.60;;
6828;SDS011;17930;48.592;8.868;2023-04-03T06:32:47;4.30;;;1.60;;
6828;SDS011;17930;48.592;8.868;2023-04-03T06:35:14;1.35;;;1.10;;
6828;SDS011;17930;48.592;8.868;2023-04-03T06:37:41;5.28;;;1.92;;
6828;SDS011;17930;48.592;8.868;2023-04-03T06:40:09;2.15;;;1.33;;
6828;SDS011;17930;48.592;8.868;2023-04-03T06:42:43;2.75;;;1.67;;
6828;SDS011;17930;48.592;8.868;2023-04-03T06:45:09;2.72;;;1.45;;
6828;SDS011;17930;48.592;8.868;2023-04-03T06:47:37;2.22;;;1.60;;
6828;SDS011;17930;48.592;8.868;2023-04-03T06:50:04;2.10;;;1.63;;
6828;SDS011;17930;48.592;8.868;2023-04-03T06:52:31;1.73;;;1.40;;
6828;SDS011;17930;48.592;8.868;2023-04-03T06:54:58;3.25;;;1.27;;
6828;SDS011;17930;48.592;8.868;2023-04-03T06:57:25;1.77;;;1.30;;
6828;SDS011;17930;48.592;8.868;2023-04-03T06:59:53;2.90;;;1.50;;
6828;SDS011;17930;48.592;8.868;2023-04-03T07:02:32;1.58;;;1.17;;
6828;SDS011;17930;48.592;8.868;2023-04-03T07:05:38;2.22;;;1.38;;
6828;SDS011;17930;48.592;8.868;2023-04-03T07:08:05;2.50;;;1.95;;
6828;SDS011;17930;48.592;8.868;2023-04-03T07:10:32;2.53;;;1.50;;
6828;SDS011;17930;48.592;8.868;2023-04-03T07:12:58;1.85;;;1.30;;
6828;SDS011;17930;48.592;8.868;2023-04-03T07:15:28;3.88;;;1.88;;
6828;SDS011;17930;48.592;8.868;2023-04-03T07:17:54;1.45;;;1.33;;
6828;SDS011;17930;48.592;8.868;2023-04-03T07:20:21;2.70;;;1.48;;
6828;SDS011;17930;48.592;8.868;2023-04-03T07:22:48;2.63;;;1.98;;
6828;SDS011;17930;48.592;8.868;2023-04-03T07:25:15;1.83;;;1.65;;
6828;SDS011;17930;48.592;8.868;2023-04-03T07:27:42;3.05;;;1.73;;
6828;SDS011;17930;48.592;8.868;2023-04-03T07:30:09;2.38;;;1.48;;
6828;SDS011;17930;48.592;8.868;2023-04-03T07:32:40;2.70;;;1.57;;
6828;SDS011;17930;48.592;8.868;2023-04-03T07:35:07;4.00;;;1.98;;
6828;SDS011;17930;48.592;8.868;2023-04-03T07:37:34;2.53;;;1.45;;
6828;SDS011;17930;48.592;8.868;2023-04-03T07:40:00;2.55;;;1.58;;
6828;SDS011;17930;48.592;8.868;2023-04-03T07:42:28;2.43;;;1.40;;
6828;SDS011;17930;48.592;8.868;2023-04-03T07:44:55;2.13;;;1.57;;
6828;SDS011;17930;48.592;8.868;2023-04-03T07:47:22;2.20;;;1.30;;
6828;SDS011;17930;48.592;8.868;2023-04-03T07:49:50;2.13;;;1.30;;
6828;SDS011;17930;48.592;8.868;2023-04-03T07:52:17;3.30;;;1.60;;
6828;SDS011;17930;48.592;8.868;2023-04-03T07:54:43;1.77;;;1.50;;
6828;SDS011;17930;48.592;8.868;2023-04-03T07:57:10;2.97;;;1.33;;
6828;SDS011;17930;48.592;8.868;2023-04-03T07:59:36;3.87;;;1.83;;
6828;SDS011;17930;48.592;8.868;2023-04-03T08:02:04;2.17;;;1.40;;
6828;SDS011;17930;48.592;8.868;2023-04-03T08:04:31;4.83;;;1.60;;
6828;SDS011;17930;48.592;8.868;2023-04-03T08:06:59;4.23;;;2.20;;
6828;SDS011;17930;48.592;8.868;2023-04-03T08:09:26;1.90;;;1.30;;
6828;SDS011;17930;48.592;8.868;2023-04-03T08:11:52;2.73;;;1.60;;
6828;SDS011;17930;48.592;8.868;2023-04-03T08:14:19;2.97;;;1.53;;
6828;SDS011;17930;48.592;8.868;2023-04-03T08:16:46;3.23;;;1.13;;
6828;SDS011;17930;48.592;8.868;2023-04-03T08:19:14;3.00;;;1.43;;
6828;SDS011;17930;48.592;8.868;2023-04-03T08:21:42;2.17;;;1.47;;
6828;SDS011;17930;48.592;8.868;2023-04-03T08:24:10;2.13;;;1.53;;
6828;SDS011;17930;48.592;8.868;2023-04-03T08:26:37;2.37;;;1.70;;
6828;SDS011;17930;48.592;8.868;2023-04-03T08:29:04;2.53;;;1.57;;
6828;SDS011;17930;48.592;8.868;2023-04-03T08:31:30;2.27;;;1.57;;
6828;SDS011;17930;48.592;8.868;2023-04-03T08:33:57;2.30;;;1.50;;
6828;SDS011;17930;48.592;8.868;2023-04-03T08:36:25;3.20;;;1.30;;
6828;SDS011;17930;48.592;8.868;2023-04-03T08:38:54;2.03;;;1.83;;
6828;SDS011;17930;48.592;8.868;2023-04-03T08:41:26;2.57;;;1.30;;
6828;SDS011;17930;48.592;8.868;2023-04-03T08:44:07;1.53;;;1.10;;
6828;SDS011;17930;48.592;8.868;2023-04-03T08:46:45;2.73;;;1.70;;
6828;SDS011;17930;48.592;8.868;2023-04-03T08:49:22;3.03;;;1.97;;
6828;SDS011;17930;48.592;8.868;2023-04-03T08:51:54;2.00;;;1.03;;
6828;SDS011;17930;48.592;8.868;2023-04-03T08:54:28;2.47;;;1.50;;
6828;SDS011;17930;48.592;8.868;2023-04-03T08:56:58;2.33;;;1.50;;
6828;SDS011;17930;48.592;8.868;2023-04-03T08:59:29;4.60;;;1.50;;
6828;SDS011;17930;48.592;8.868;2023-04-03T09:02:01;3.17;;;1.90;;
6828;SDS011;17930;48.592;8.868;2023-04-03T09:04:32;1.77;;;1.40;;
6828;SDS011;17930;48.592;8.868;2023-04-03T09:07:02;1.93;;;1.40;;
6828;SDS011;17930;48.592;8.868;2023-04-03T09:09:35;4.93;;;1.57;;
6828;SDS011;17930;48.592;8.868;2023-04-03T09:12:09;2.73;;;1.50;;
6828;SDS011;17930;48.592;8.868;2023-04-03T09:14:45;3.60;;;1.70;;
6828;SDS011;17930;48.592;8.868;2023-04-03T09:17:21;2.73;;;1.77;;
6828;SDS011;17930;48.592;8.868;2023-04-03T09:19:58;1.57;;;1.40;;
6828;SDS011;17930;48.592;8.868;2023-04-03T09:22:35;1.97;;;1.50;;
6828;SDS011;17930;48.592;8.868;2023-04-03T09:25:05;2.70;;;1.43;;
6828;SDS011;17930;48.592;8.868;2023-04-03T09:27:40;1.50;;;1.20;;
6828;SDS011;17930;48.592;8.868;2023-04-03T09:30:08;2.67;;;1.90;;
6828;SDS011;17930;48.592;8.868;2023-04-03T09:32:40;2.53;;;1.30;;
6828;SDS011;17930;48.592;8.868;2023-04-03T09:35:14;2.53;;;1.40;;
6828;SDS011;17930;48.592;8.868;2023-04-03T09:37:45;2.13;;;1.20;;
6828;SDS011;17930;48.592;8.868;2023-04-03T09:43:02;2.93;;;1.33;;
6828;SDS011;17930;48.592;8.868;2023-04-03T09:45:46;3.73;;;1.50;;
6828;SDS011;17930;48.592;8.868;2023-04-03T09:48:15;1.67;;;1.33;;
6828;SDS011;17930;48.592;8.868;2023-04-03T09:50:57;4.73;;;1.80;;
6828;SDS011;17930;48.592;8.868;2023-04-03T09:53:33;2.97;;;1.67;;
6828;SDS011;17930;48.592;8.868;2023-04-03T09:56:03;3.53;;;1.50;;
6828;SDS011;17930;48.592;8.868;2023-04-03T09:58:34;3.80;;;1.97;;
6828;SDS011;17930;48.592;8.868;2023-04-03T10:01:06;1.93;;;1.47;;
6828;SDS011;17930;48.592;8.868;2023-04-03T10:03:46;2.47;;;1.30;;
6828;SDS011;17930;48.592;8.868;2023-04-03T10:06:30;2.23;;;1.30;;
6828;SDS011;17930;48.592;8.868;2023-04-03T10:09:01;2.53;;;1.20;;
6828;SDS011;17930;48.592;8.868;2023-04-03T10:11:29;2.93;;;1.63;;
6828;SDS011;17930;48.592;8.868;2023-04-03T10:13:58;1.70;;;1.60;;
6828;SDS011;17930;48.592;8.868;2023-04-03T10:16:27;3.13;;;1.50;;
6828;SDS011;17930;48.592;8.868;2023-04-03T10:19:04;3.33;;;2.00;;
6828;SDS011;17930;48.592;8.868;2023-04-03T10:21:44;4.10;;;1.70;;
6828;SDS011;17930;48.592;8.868;2023-04-03T10:24:16;2.40;;;1.37;;
6828;SDS011;17930;48.592;8.868;2023-04-03T10:26:50;2.27;;;1.57;;
6828;SDS011;17930;48.592;8.868;2023-04-03T10:29:30;1.80;;;1.40;;
6828;SDS011;17930;48.592;8.868;2023-04-03T10:32:06;2.13;;;1.73;;
6828;SDS011;17930;48.592;8.868;2023-04-03T10:34:43;1.93;;;1.50;;
6828;SDS011;17930;48.592;8.868;2023-04-03T10:37:12;4.00;;;1.50;;
6828;SDS011;17930;48.592;8.868;2023-04-03T10:39:49;2.33;;;1.50;;
6828;SDS011;17930;48.592;8.868;2023-04-03T10:42:25;3.53;;;1.70;;
6828;SDS011;17930;48.592;8.868;2023-04-03T10:45:15;2.13;;;1.40;;
6828;SDS011;17930;48.592;8.868;2023-04-03T10:47:53;2.17;;;1.50;;
6828;SDS011;17930;48.592;8.868;2023-04-03T10:50:33;2.10;;;1.47;;
6828;SDS011;17930;48.592;8.868;2023-04-03T10:53:13;1.97;;;1.60;;
6828;SDS011;17930;48.592;8.868;2023-04-03T10:55:48;2.97;;;1.20;;
6828;SDS011;17930;48.592;8.868;2023-04-03T10:58:24;1.47;;;1.13;;
6828;SDS011;17930;48.592;8.868;2023-04-03T11:00:57;4.87;;;1.60;;
6828;SDS011;17930;48.592;8.868;2023-04-03T11:03:30;2.67;;;1.13;;
6828;SDS011;17930;48.592;8.868;2023-04-03T11:06:02;3.13;;;1.43;;
6828;SDS011;17930;48.592;8.868;2023-04-03T11:08:34;1.50;;;1.40;;
6828;SDS011;17930;48.592;8.868;2023-04-03T11:11:06;1.83;;;1.33;;
6828;SDS011;17930;48.592;8.868;2023-04-03T11:13:37;1.87;;;1.53;;
6828;SDS011;17930;48.592;8.868;2023-04-03T11:16:09;2.27;;;1.30;;
6828;SDS011;17930;48.592;8.868;2023-04-03T11:18:43;2.47;;;1.53;;
6828;SDS011;17930;48.592;8.868;2023-04-03T11:21:15;2.77;;;1.30;;
6828;SDS011;17930;48.592;8.868;2023-04-03T11:23:47;2.87;;;1.60;;
6828;SDS011;17930;48.592;8.868;2023-04-03T11:26:15;3.07;;;2.17;;
6828;SDS011;17930;48.592;8.868;2023-04-03T11:28:43;2.33;;;1.40;;
6828;SDS011;17930;48.592;8.868;2023-04-03T11:31:15;2.37;;;1.80;;
6828;SDS011;17930;48.592;8.868;2023-04-03T11:33:55;2.23;;;1.47;;
6828;SDS011;17930;48.592;8.868;2023-04-03T11:36:30;2.17;;;1.40;;
6828;SDS011;17930;48.592;8.868;2023-04-03T11:39:02;3.07;;;1.17;;
6828;SDS011;17930;48.592;8.868;2023-04-03T11:41:42;3.40;;;1.40;;
6828;SDS011;17930;48.592;8.868;2023-04-03T11:44:27;1.93;;;1.20;;
6828;SDS011;17930;48.592;8.868;2023-04-03T11:46:59;3.00;;;1.30;;
6828;SDS011;17930;48.592;8.868;2023-04-03T11:55:52;3.53;;;1.27;;
6828;SDS011;17930;48.592;8.868;2023-04-03T11:58:20;1.53;;;0.97;;
6828;SDS011;17930;48.592;8.868;2023-04-03T12:01:03;1.37;;;1.10;;
6828;SDS011;17930;48.592;8.868;2023-04-03T12:12:28;3.17;;;1.67;;
6828;SDS011;17930;48.592;8.868;2023-04-03T12:15:20;4.17;;;1.43;;
6828;SDS011;17930;48.592;8.868;2023-04-03T12:17:49;2.97;;;1.50;;
6828;SDS011;17930;48.592;8.868;2023-04-03T12:23:23;4.23;;;1.20;;
6828;SDS011;17930;48.592;8.868;2023-04-03T12:25:59;2.57;;;1.40;;
6828;SDS011;17930;48.592;8.868;2023-04-03T12:28:36;2.57;;;1.30;;
6828;SDS011;17930;48.592;8.868;2023-04-03T12:31:05;1.60;;;1.10;;
6828;SDS011;17930;48.592;8.868;2023-04-03T12:33:38;1.57;;;1.13;;
6828;SDS011;17930;48.592;8.868;2023-04-03T12:36:25;3.40;;;1.00;;
6828;SDS011;17930;48.592;8.868;2023-04-03T12:39:11;3.63;;;1.23;;
6828;SDS011;17930;48.592;8.868;2023-04-03T12:41:46;1.20;;;0.93;;
6828;SDS011;17930;48.592;8.868;2023-04-03T12:44:34;1.53;;;1.17;;
6828;SDS011;17930;48.592;8.868;2023-04-03T12:47:16;1.00;;;0.90;;
6828;SDS011;17930;48.592;8.868;2023-04-03T12:49:48;5.57;;;1.20;;
6828;SDS011;17930;48.592;8.868;2023-04-03T12:52:18;2.77;;;1.30;;
6828;SDS011;17930;48.592;8.868;2023-04-03T12:54:50;3.03;;;1.67;;
6828;SDS011;17930;48.592;8.868;2023-04-03T12:57:18;2.17;;;1.10;;
6828;SDS011;17930;48.592;8.868;2023-04-03T12:59:46;3.33;;;1.40;;
6828;SDS011;17930;48.592;8.868;2023-04-03T13:02:23;1.73;;;1.20;;
6828;SDS011;17930;48.592;8.868;2023-04-03T13:04:53;1.70;;;1.10;;
6828;SDS011;17930;48.592;8.868;2023-04-03T13:07:25;2.70;;;1.10;;
6828;SDS011;17930;48.592;8.868;2023-04-03T13:09:58;1.70;;;1.00;;
6828;SDS011;17930;48.592;8.868;2023-04-03T13:12:26;2.17;;;1.10;;
6828;SDS011;17930;48.592;8.868;2023-04-03T13:14:54;3.43;;;1.60;;
6828;SDS011;17930;48.592;8.868;2023-04-03T13:17:23;1.30;;;1.00;;
6828;SDS011;17930;48.592;8.868;2023-04-03T13:19:51;1.70;;;0.93;;
6828;SDS011;17930;48.592;8.868;2023-04-03T13:22:27;3.77;;;1.20;;
6828;SDS011;17930;48.592;8.868;2023-04-03T13:24:58;4.60;;;1.20;;
6828;SDS011;17930;48.592;8.868;2023-04-03T13:27:28;1.97;;;1.00;;
6828;SDS011;17930;48.592;8.868;2023-04-03T13:29:58;2.73;;;1.10;;
6828;SDS011;17930;48.592;8.868;2023-04-03T13:32:27;2.50;;;1.37;;
6828;SDS011;17930;48.592;8.868;2023-04-03T13:34:56;1.87;;;1.10;;
6828;SDS011;17930;48.592;8.868;2023-04-03T13:37:25;2.83;;;1.13;;
6828;SDS011;17930;48.592;8.868;2023-04-03T13:39:58;2.13;;;1.30;;
6828;SDS011;17930;48.592;8.868;2023-04-03T13:42:28;1.83;;;1.00;;
6828;SDS011;17930;48.592;8.868;2023-04-03T13:47:52;2.67;;;1.10;;
6828;SDS011;17930;48.592;8.868;2023-04-03T13:50:21;2.73;;;1.30;;
6828;SDS011;17930;48.592;8.868;2023-04-03T13:52:53;3.93;;;1.37;;
6828;SDS011;17930;48.592;8.868;2023-04-03T13:55:26;3.87;;;1.20;;
6828;SDS011;17930;48.592;8.868;2023-04-03T13:57:55;2.83;;;1.33;;
6828;SDS011;17930;48.592;8.868;2023-04-03T14:00:32;3.03;;;1.40;;
6828;SDS011;17930;48.592;8.868;2023-04-03T14:03:11;2.33;;;1.57;;
6828;SDS011;17930;48.592;8.868;2023-04-03T14:05:40;1.87;;;1.20;;
6828;SDS011;17930;48.592;8.868;2023-04-03T14:08:08;2.93;;;1.23;;
6828;SDS011;17930;48.592;8.868;2023-04-03T14:10:35;3.60;;;1.20;;
6828;SDS011;17930;48.592;8.868;2023-04-03T14:13:01;2.30;;;1.00;;
6828;SDS011;17930;48.592;8.868;2023-04-03T14:15:29;2.57;;;1.13;;
6828;SDS011;17930;48.592;8.868;2023-04-03T14:17:57;1.90;;;1.10;;
6828;SDS011;17930;48.592;8.868;2023-04-03T14:20:26;1.77;;;1.10;;
6828;SDS011;17930;48.592;8.868;2023-04-03T14:22:53;1.03;;;0.87;;
6828;SDS011;17930;48.592;8.868;2023-04-03T14:25:21;3.53;;;1.27;;
6828;SDS011;17930;48.592;8.868;2023-04-03T14:27:50;1.87;;;1.00;;
6828;SDS011;17930;48.592;8.868;2023-04-03T14:30:21;2.80;;;1.40;;
6828;SDS011;17930;48.592;8.868;2023-04-03T14:32:51;2.90;;;1.30;;
6828;SDS011;17930;48.592;8.868;2023-04-03T14:35:18;2.90;;;1.30;;
6828;SDS011;17930;48.592;8.868;2023-04-03T14:37:46;2.03;;;1.10;;
6828;SDS011;17930;48.592;8.868;2023-04-03T14:40:14;2.83;;;1.27;;
6828;SDS011;17930;48.592;8.868;2023-04-03T14:42:43;1.53;;;1.30;;
6828;SDS011;17930;48.592;8.868;2023-04-03T14:45:12;1.60;;;1.00;;
6828;SDS011;17930;48.592;8.868;2023-04-03T14:47:39;3.07;;;1.00;;
6828;SDS011;17930;48.592;8.868;2023-04-03T14:50:11;1.53;;;1.10;;
6828;SDS011;17930;48.592;8.868;2023-04-03T14:52:41;2.87;;;1.47;;
6828;SDS011;17930;48.592;8.868;2023-04-03T14:55:11;2.97;;;1.20;;
6828;SDS011;17930;48.592;8.868;2023-04-03T14:57:38;2.77;;;1.47;;
6828;SDS011;17930;48.592;8.868;2023-04-03T15:00:11;2.73;;;1.37;;
6828;SDS011;17930;48.592;8.868;2023-04-03T15:02:39;2.07;;;1.07;;
6828;SDS011;17930;48.592;8.868;2023-04-03T15:05:07;1.30;;;1.20;;
6828;SDS011;17930;48.592;8.868;2023-04-03T15:07:35;1.83;;;1.17;;
6828;SDS011;17930;48.592;8.868;2023-04-03T15:10:09;1.57;;;1.13;;
6828;SDS011;17930;48.592;8.868;2023-04-03T15:12:41;2.47;;;1.30;;
6828;SDS011;17930;48.592;8.868;2023-04-03T15:15:10;1.33;;;0.93;;
6828;SDS011;17930;48.592;8.868;2023-04-03T15:17:37;2.83;;;1.30;;
6828;SDS011;17930;48.592;8.868;2023-04-03T15:20:06;2.70;;;1.43;;
6828;SDS011;17930;48.592;8.868;2023-04-03T15:22:39;1.27;;;1.00;;
6828;SDS011;17930;48.592;8.868;2023-04-03T15:25:06;1.63;;;1.00;;
6828;SDS011;17930;48.592;8.868;2023-04-03T15:27:33;3.30;;;1.37;;
6828;SDS011;17930;48.592;8.868;2023-04-03T15:30:00;2.03;;;1.10;;
6828;SDS011;17930;48.592;8.868;2023-04-03T15:32:28;2.00;;;1.30;;
6828;SDS011;17930;48.592;8.868;2023-04-03T15:34:55;1.53;;;1.40;;
6828;SDS011;17930;48.592;8.868;2023-04-03T15:37:21;1.40;;;1.27;;
6828;SDS011;17930;48.592;8.868;2023-04-03T15:39:48;2.70;;;1.33;;
6828;SDS011;17930;48.592;8.868;2023-04-03T15:42:15;2.63;;;1.50;;
6828;SDS011;17930;48.592;8.868;2023-04-03T15:44:41;3.57;;;1.20;;